sensor_id;sensor_type;location;lat;lon;timestamp;temperature;humidity
43607;DHT22;29197;44.788;10.366;2023-04-06T00:02:47;8.40;92.50
43607;DHT22;29197;44.788;10.366;2023-04-06T00:05:36;8.40;92.30
43607;DHT22;29197;44.788;10.366;2023-04-06T00:08:25;8.40;92.70
43607;DHT22;29197;44.788;10.366;2023-04-06T00:11:15;8.60;92.40
43607;DHT22;29197;44.788;10.366;2023-04-06T00:14:04;8.80;92.20
43607;DHT22;29197;44.788;10.366;2023-04-06T00:16:53;8.80;92.10
43607;DHT22;29197;44.788;10.366;2023-04-06T00:19:41;8.80;92.10
43607;DHT22;29197;44.788;10.366;2023-04-06T00:22:30;8.70;92.20
43607;DHT22;29197;44.788;10.366;2023-04-06T00:25:18;8.70;92.30
43607;DHT22;29197;44.788;10.366;2023-04-06T00:28:08;8.90;92.30
43607;DHT22;29197;44.788;10.366;2023-04-06T00:30:57;9.00;92.30
43607;DHT22;29197;44.788;10.366;2023-04-06T00:33:47;9.10;92.40
43607;DHT22;29197;44.788;10.366;2023-04-06T00:36:36;9.20;92.40
43607;DHT22;29197;44.788;10.366;2023-04-06T00:39:24;9.10;92.00
43607;DHT22;29197;44.788;10.366;2023-04-06T00:42:13;9.10;91.80
43607;DHT22;29197;44.788;10.366;2023-04-06T00:45:04;9.00;91.50
43607;DHT22;29197;44.788;10.366;2023-04-06T00:47:52;9.00;91.50
43607;DHT22;29197;44.788;10.366;2023-04-06T00:50:42;9.00;91.60
43607;DHT22;29197;44.788;10.366;2023-04-06T00:53:30;9.10;91.30
43607;DHT22;29197;44.788;10.366;2023-04-06T00:56:19;9.00;91.50
43607;DHT22;29197;44.788;10.366;2023-04-06T00:59:08;8.90;91.50
43607;DHT22;29197;44.788;10.366;2023-04-06T01:01:58;9.00;91.30
43607;DHT22;29197;44.788;10.366;2023-04-06T01:04:47;8.90;91.20
43607;DHT22;29197;44.788;10.366;2023-04-06T01:07:35;8.80;91.10
43607;DHT22;29197;44.788;10.366;2023-04-06T01:10:24;8.70;90.90
43607;DHT22;29197;44.788;10.366;2023-04-06T01:13:13;8.10;91.30
43607;DHT22;29197;44.788;10.366;2023-04-06T01:16:02;8.20;91.60
43607;DHT22;29197;44.788;10.366;2023-04-06T01:18:52;8.40;91.60
43607;DHT22;29197;44.788;10.366;2023-04-06T01:21:41;8.60;91.50
43607;DHT22;29197;44.788;10.366;2023-04-06T01:24:31;8.80;91.10
43607;DHT22;29197;44.788;10.366;2023-04-06T01:27:19;8.80;91.20
43607;DHT22;29197;44.788;10.366;2023-04-06T01:30:08;8.80;91.20
43607;DHT22;29197;44.788;10.366;2023-04-06T01:32:57;8.80;91.40
43607;DHT22;29197;44.788;10.366;2023-04-06T01:35:45;8.80;91.80
43607;DHT22;29197;44.788;10.366;2023-04-06T01:38:34;8.60;91.10
43607;DHT22;29197;44.788;10.366;2023-04-06T01:41:24;8.40;91.10
43607;DHT22;29197;44.788;10.366;2023-04-06T01:44:14;7.90;91.80
43607;DHT22;29197;44.788;10.366;2023-04-06T01:47:03;8.00;91.70
43607;DHT22;29197;44.788;10.366;2023-04-06T01:49:51;8.10;91.30
43607;DHT22;29197;44.788;10.366;2023-04-06T01:52:40;8.20;91.30
43607;DHT22;29197;44.788;10.366;2023-04-06T01:55:29;8.30;90.80
43607;DHT22;29197;44.788;10.366;2023-04-06T01:58:19;8.20;90.80
43607;DHT22;29197;44.788;10.366;2023-04-06T02:01:07;8.20;90.90
43607;DHT22;29197;44.788;10.366;2023-04-06T02:03:56;8.30;91.10
43607;DHT22;29197;44.788;10.366;2023-04-06T02:06:45;8.30;91.10
43607;DHT22;29197;44.788;10.366;2023-04-06T02:09:33;8.40;91.10
43607;DHT22;29197;44.788;10.366;2023-04-06T02:12:22;8.00;91.10
43607;DHT22;29197;44.788;10.366;2023-04-06T02:15:12;8.10;91.60
43607;DHT22;29197;44.788;10.366;2023-04-06T02:18:01;8.30;91.40
43607;DHT22;29197;44.788;10.366;2023-04-06T02:20:50;8.40;91.70
43607;DHT22;29197;44.788;10.366;2023-04-06T02:23:38;8.50;91.50
43607;DHT22;29197;44.788;10.366;2023-04-06T02:26:27;8.60;91.70
43607;DHT22;29197;44.788;10.366;2023-04-06T02:29:15;8.40;91.80
43607;DHT22;29197;44.788;10.366;2023-04-06T02:32:06;8.20;91.70
43607;DHT22;29197;44.788;10.366;2023-04-06T02:34:54;7.90;92.10
43607;DHT22;29197;44.788;10.366;2023-04-06T02:37:43;7.70;92.60
43607;DHT22;29197;44.788;10.366;2023-04-06T02:40:31;7.20;93.60
43607;DHT22;29197;44.788;10.366;2023-04-06T02:43:20;7.40;93.70
43607;DHT22;29197;44.788;10.366;2023-04-06T02:46:08;7.70;93.80
43607;DHT22;29197;44.788;10.366;2023-04-06T02:48:58;7.80;93.70
43607;DHT22;29197;44.788;10.366;2023-04-06T02:51:48;7.90;93.50
43607;DHT22;29197;44.788;10.366;2023-04-06T02:54:36;7.90;93.70
43607;DHT22;29197;44.788;10.366;2023-04-06T02:57:25;8.00;93.80
43607;DHT22;29197;44.788;10.366;2023-04-06T03:00:14;8.10;93.70
43607;DHT22;29197;44.788;10.366;2023-04-06T03:03:02;8.10;93.50
43607;DHT22;29197;44.788;10.366;2023-04-06T03:05:52;8.20;93.40
43607;DHT22;29197;44.788;10.366;2023-04-06T03:08:43;8.20;93.60
43607;DHT22;29197;44.788;10.366;2023-04-06T03:11:32;8.10;93.50
43607;DHT22;29197;44.788;10.366;2023-04-06T03:14:20;8.20;93.70
43607;DHT22;29197;44.788;10.366;2023-04-06T03:17:09;8.20;93.70
43607;DHT22;29197;44.788;10.366;2023-04-06T03:19:58;8.30;93.70
43607;DHT22;29197;44.788;10.366;2023-04-06T03:22:48;8.40;93.60
43607;DHT22;29197;44.788;10.366;2023-04-06T03:25:36;8.40;93.50
43607;DHT22;29197;44.788;10.366;2023-04-06T03:28:26;8.40;93.50
43607;DHT22;29197;44.788;10.366;2023-04-06T03:31:15;8.40;93.40
43607;DHT22;29197;44.788;10.366;2023-04-06T03:34:03;8.30;93.40
43607;DHT22;29197;44.788;10.366;2023-04-06T03:36:52;8.20;93.40
43607;DHT22;29197;44.788;10.366;2023-04-06T03:39:57;8.20;93.20
43607;DHT22;29197;44.788;10.366;2023-04-06T03:42:45;8.10;93.20
43607;DHT22;29197;44.788;10.366;2023-04-06T03:45:34;8.10;93.20
43607;DHT22;29197;44.788;10.366;2023-04-06T03:48:22;8.10;93.20
43607;DHT22;29197;44.788;10.366;2023-04-06T03:51:11;8.10;93.10
43607;DHT22;29197;44.788;10.366;2023-04-06T03:53:59;8.00;93.00
43607;DHT22;29197;44.788;10.366;2023-04-06T03:56:49;7.90;93.00
43607;DHT22;29197;44.788;10.366;2023-04-06T03:59:38;7.60;92.50
43607;DHT22;29197;44.788;10.366;2023-04-06T04:02:26;7.10;92.80
43607;DHT22;29197;44.788;10.366;2023-04-06T04:05:15;7.00;92.60
43607;DHT22;29197;44.788;10.366;2023-04-06T04:08:04;6.70;93.00
43607;DHT22;29197;44.788;10.366;2023-04-06T04:10:53;6.80;92.90
43607;DHT22;29197;44.788;10.366;2023-04-06T04:13:43;7.00;92.90
43607;DHT22;29197;44.788;10.366;2023-04-06T04:16:32;7.10;92.80
43607;DHT22;29197;44.788;10.366;2023-04-06T04:19:20;7.30;92.80
43607;DHT22;29197;44.788;10.366;2023-04-06T04:22:09;7.40;92.40
43607;DHT22;29197;44.788;10.366;2023-04-06T04:24:57;7.50;92.40
43607;DHT22;29197;44.788;10.366;2023-04-06T04:27:46;7.60;92.20
43607;DHT22;29197;44.788;10.366;2023-04-06T04:30:36;7.60;92.00
43607;DHT22;29197;44.788;10.366;2023-04-06T04:33:24;7.60;91.90
43607;DHT22;29197;44.788;10.366;2023-04-06T04:36:13;7.60;91.90
43607;DHT22;29197;44.788;10.366;2023-04-06T04:39:01;7.10;91.90
43607;DHT22;29197;44.788;10.366;2023-04-06T04:41:50;6.60;92.70
43607;DHT22;29197;44.788;10.366;2023-04-06T04:44:39;6.60;92.70
43607;DHT22;29197;44.788;10.366;2023-04-06T04:47:29;6.80;92.80
43607;DHT22;29197;44.788;10.366;2023-04-06T04:50:17;7.00;92.70
43607;DHT22;29197;44.788;10.366;2023-04-06T04:53:06;7.20;92.80
43607;DHT22;29197;44.788;10.366;2023-04-06T04:55:54;7.40;92.80
43607;DHT22;29197;44.788;10.366;2023-04-06T04:58:43;7.50;92.90
43607;DHT22;29197;44.788;10.366;2023-04-06T05:01:31;7.60;92.40
43607;DHT22;29197;44.788;10.366;2023-04-06T05:04:39;7.70;92.10
43607;DHT22;29197;44.788;10.366;2023-04-06T05:07:27;7.70;91.90
43607;DHT22;29197;44.788;10.366;2023-04-06T05:10:16;7.40;90.50
43607;DHT22;29197;44.788;10.366;2023-04-06T05:13:04;7.30;91.00
43607;DHT22;29197;44.788;10.366;2023-04-06T05:15:53;6.90;90.70
43607;DHT22;29197;44.788;10.366;2023-04-06T05:18:41;6.40;91.40
43607;DHT22;29197;44.788;10.366;2023-04-06T05:21:31;6.60;91.40
43607;DHT22;29197;44.788;10.366;2023-04-06T05:24:20;6.80;91.50
43607;DHT22;29197;44.788;10.366;2023-04-06T05:27:09;7.00;91.40
43607;DHT22;29197;44.788;10.366;2023-04-06T05:29:57;7.20;91.20
43607;DHT22;29197;44.788;10.366;2023-04-06T05:32:46;7.30;91.10
43607;DHT22;29197;44.788;10.366;2023-04-06T05:35:35;7.70;95.20
43607;DHT22;29197;44.788;10.366;2023-04-06T05:38:25;7.50;92.60
43607;DHT22;29197;44.788;10.366;2023-04-06T05:41:14;7.30;91.20
43607;DHT22;29197;44.788;10.366;2023-04-06T05:44:02;7.30;91.20
43607;DHT22;29197;44.788;10.366;2023-04-06T05:46:51;7.10;91.20
43607;DHT22;29197;44.788;10.366;2023-04-06T05:49:41;7.00;91.60
43607;DHT22;29197;44.788;10.366;2023-04-06T05:52:30;7.20;91.60
43607;DHT22;29197;44.788;10.366;2023-04-06T05:55:20;7.10;91.50
43607;DHT22;29197;44.788;10.366;2023-04-06T05:58:09;7.10;91.90
43607;DHT22;29197;44.788;10.366;2023-04-06T06:00:57;7.20;92.00
43607;DHT22;29197;44.788;10.366;2023-04-06T06:03:46;7.00;92.30
43607;DHT22;29197;44.788;10.366;2023-04-06T06:06:35;6.90;92.40
43607;DHT22;29197;44.788;10.366;2023-04-06T06:09:24;6.90;92.60
43607;DHT22;29197;44.788;10.366;2023-04-06T06:12:14;6.80;93.00
43607;DHT22;29197;44.788;10.366;2023-04-06T06:15:03;6.80;93.10
43607;DHT22;29197;44.788;10.366;2023-04-06T06:17:52;7.00;93.20
43607;DHT22;29197;44.788;10.366;2023-04-06T06:20:41;7.20;93.10
43607;DHT22;29197;44.788;10.366;2023-04-06T06:23:29;7.20;93.30
43607;DHT22;29197;44.788;10.366;2023-04-06T06:26:18;7.10;93.50
43607;DHT22;29197;44.788;10.366;2023-04-06T06:29:08;7.40;93.40
43607;DHT22;29197;44.788;10.366;2023-04-06T06:31:56;7.60;93.30
43607;DHT22;29197;44.788;10.366;2023-04-06T06:34:45;7.80;93.30
43607;DHT22;29197;44.788;10.366;2023-04-06T06:37:34;8.00;93.10
43607;DHT22;29197;44.788;10.366;2023-04-06T06:40:22;8.20;93.20
43607;DHT22;29197;44.788;10.366;2023-04-06T06:43:13;8.40;93.20
43607;DHT22;29197;44.788;10.366;2023-04-06T06:46:03;8.40;93.10
43607;DHT22;29197;44.788;10.366;2023-04-06T06:48:52;8.50;93.10
43607;DHT22;29197;44.788;10.366;2023-04-06T06:51:41;8.50;93.20
43607;DHT22;29197;44.788;10.366;2023-04-06T06:54:29;8.60;93.10
43607;DHT22;29197;44.788;10.366;2023-04-06T06:57:18;8.70;93.60
43607;DHT22;29197;44.788;10.366;2023-04-06T07:00:07;8.90;93.80
43607;DHT22;29197;44.788;10.366;2023-04-06T07:03:00;9.10;93.80
43607;DHT22;29197;44.788;10.366;2023-04-06T07:05:49;9.20;93.40
43607;DHT22;29197;44.788;10.366;2023-04-06T07:08:40;9.40;93.00
43607;DHT22;29197;44.788;10.366;2023-04-06T07:11:29;9.40;92.80
43607;DHT22;29197;44.788;10.366;2023-04-06T07:14:17;9.60;93.10
43607;DHT22;29197;44.788;10.366;2023-04-06T07:17:06;9.80;93.70
43607;DHT22;29197;44.788;10.366;2023-04-06T07:19:56;9.90;94.00
43607;DHT22;29197;44.788;10.366;2023-04-06T07:22:45;10.00;94.00
43607;DHT22;29197;44.788;10.366;2023-04-06T07:25:33;10.10;93.80
43607;DHT22;29197;44.788;10.366;2023-04-06T07:28:22;10.20;93.50
43607;DHT22;29197;44.788;10.366;2023-04-06T07:31:10;10.40;93.40
43607;DHT22;29197;44.788;10.366;2023-04-06T07:33:59;10.40;93.40
43607;DHT22;29197;44.788;10.366;2023-04-06T07:36:49;10.60;93.10
43607;DHT22;29197;44.788;10.366;2023-04-06T07:39:39;10.70;93.60
43607;DHT22;29197;44.788;10.366;2023-04-06T07:42:30;10.80;93.60
43607;DHT22;29197;44.788;10.366;2023-04-06T07:45:20;10.90;92.80
43607;DHT22;29197;44.788;10.366;2023-04-06T07:48:08;11.00;93.20
43607;DHT22;29197;44.788;10.366;2023-04-06T07:51:01;11.20;93.20
43607;DHT22;29197;44.788;10.366;2023-04-06T07:53:52;11.40;93.50
43607;DHT22;29197;44.788;10.366;2023-04-06T07:56:40;11.50;93.90
43607;DHT22;29197;44.788;10.366;2023-04-06T07:59:29;11.50;93.70
43607;DHT22;29197;44.788;10.366;2023-04-06T08:02:17;11.60;93.60
43607;DHT22;29197;44.788;10.366;2023-04-06T08:05:06;11.70;93.70
43607;DHT22;29197;44.788;10.366;2023-04-06T08:07:55;11.90;93.20
43607;DHT22;29197;44.788;10.366;2023-04-06T08:10:45;12.00;92.90
43607;DHT22;29197;44.788;10.366;2023-04-06T08:13:34;12.10;92.50
43607;DHT22;29197;44.788;10.366;2023-04-06T08:16:22;12.30;91.60
43607;DHT22;29197;44.788;10.366;2023-04-06T08:19:11;12.20;91.60
43607;DHT22;29197;44.788;10.366;2023-04-06T08:22:00;12.10;91.50
43607;DHT22;29197;44.788;10.366;2023-04-06T08:24:50;12.00;91.10
43607;DHT22;29197;44.788;10.366;2023-04-06T08:27:40;12.00;91.20
43607;DHT22;29197;44.788;10.366;2023-04-06T08:30:29;12.10;91.00
43607;DHT22;29197;44.788;10.366;2023-04-06T08:33:18;12.30;90.40
43607;DHT22;29197;44.788;10.366;2023-04-06T08:36:08;12.40;87.70
43607;DHT22;29197;44.788;10.366;2023-04-06T08:38:57;12.50;88.20
43607;DHT22;29197;44.788;10.366;2023-04-06T08:41:45;12.40;87.30
43607;DHT22;29197;44.788;10.366;2023-04-06T08:44:36;12.40;87.80
43607;DHT22;29197;44.788;10.366;2023-04-06T08:47:24;12.40;87.80
43607;DHT22;29197;44.788;10.366;2023-04-06T08:50:13;12.40;87.50
43607;DHT22;29197;44.788;10.366;2023-04-06T08:53:02;12.40;85.90
43607;DHT22;29197;44.788;10.366;2023-04-06T08:55:51;12.50;86.20
43607;DHT22;29197;44.788;10.366;2023-04-06T08:58:40;12.80;85.50
43607;DHT22;29197;44.788;10.366;2023-04-06T09:01:31;12.80;87.30
43607;DHT22;29197;44.788;10.366;2023-04-06T09:04:22;12.80;87.40
43607;DHT22;29197;44.788;10.366;2023-04-06T09:07:10;12.80;87.30
43607;DHT22;29197;44.788;10.366;2023-04-06T09:09:59;12.80;87.70
43607;DHT22;29197;44.788;10.366;2023-04-06T09:12:48;13.10;83.30
43607;DHT22;29197;44.788;10.366;2023-04-06T09:15:37;13.00;83.90
43607;DHT22;29197;44.788;10.366;2023-04-06T09:18:30;13.10;84.80
43607;DHT22;29197;44.788;10.366;2023-04-06T09:21:20;13.20;83.30
43607;DHT22;29197;44.788;10.366;2023-04-06T09:24:12;13.20;84.50
43607;DHT22;29197;44.788;10.366;2023-04-06T09:27:00;13.60;84.00
43607;DHT22;29197;44.788;10.366;2023-04-06T09:29:49;13.30;84.70
43607;DHT22;29197;44.788;10.366;2023-04-06T09:32:48;13.50;84.20
43607;DHT22;29197;44.788;10.366;2023-04-06T09:35:38;13.60;81.70
43607;DHT22;29197;44.788;10.366;2023-04-06T09:38:27;13.60;81.70
43607;DHT22;29197;44.788;10.366;2023-04-06T09:41:21;13.70;83.70
43607;DHT22;29197;44.788;10.366;2023-04-06T09:44:11;13.70;81.50
43607;DHT22;29197;44.788;10.366;2023-04-06T09:47:01;13.80;79.10
43607;DHT22;29197;44.788;10.366;2023-04-06T09:49:55;13.80;78.80
43607;DHT22;29197;44.788;10.366;2023-04-06T09:52:48;13.50;77.10
43607;DHT22;29197;44.788;10.366;2023-04-06T09:55:42;13.50;77.10
43607;DHT22;29197;44.788;10.366;2023-04-06T09:58:34;13.60;80.00
43607;DHT22;29197;44.788;10.366;2023-04-06T10:01:29;13.80;80.70
43607;DHT22;29197;44.788;10.366;2023-04-06T10:04:29;14.00;81.20
43607;DHT22;29197;44.788;10.366;2023-04-06T10:07:22;14.30;78.90
43607;DHT22;29197;44.788;10.366;2023-04-06T10:10:13;14.20;79.80
43607;DHT22;29197;44.788;10.366;2023-04-06T10:13:03;14.20;81.60
43607;DHT22;29197;44.788;10.366;2023-04-06T10:15:52;14.40;79.80
43607;DHT22;29197;44.788;10.366;2023-04-06T10:18:44;14.50;79.60
43607;DHT22;29197;44.788;10.366;2023-04-06T10:21:35;14.50;77.80
43607;DHT22;29197;44.788;10.366;2023-04-06T10:24:24;14.70;80.70
43607;DHT22;29197;44.788;10.366;2023-04-06T10:27:14;14.80;79.90
43607;DHT22;29197;44.788;10.366;2023-04-06T10:30:05;14.90;81.60
43607;DHT22;29197;44.788;10.366;2023-04-06T10:32:54;15.00;81.10
43607;DHT22;29197;44.788;10.366;2023-04-06T10:35:43;15.20;79.40
43607;DHT22;29197;44.788;10.366;2023-04-06T10:38:36;15.40;77.40
43607;DHT22;29197;44.788;10.366;2023-04-06T10:41:32;15.30;79.00
43607;DHT22;29197;44.788;10.366;2023-04-06T10:44:23;15.50;80.20
43607;DHT22;29197;44.788;10.366;2023-04-06T10:47:18;15.60;81.20
43607;DHT22;29197;44.788;10.366;2023-04-06T10:50:08;15.80;80.70
43607;DHT22;29197;44.788;10.366;2023-04-06T10:53:00;16.10;78.50
43607;DHT22;29197;44.788;10.366;2023-04-06T10:55:50;16.30;76.60
43607;DHT22;29197;44.788;10.366;2023-04-06T10:58:44;16.40;77.00
43607;DHT22;29197;44.788;10.366;2023-04-06T11:01:35;16.20;77.60
43607;DHT22;29197;44.788;10.366;2023-04-06T11:04:25;16.40;79.00
43607;DHT22;29197;44.788;10.366;2023-04-06T11:07:23;16.60;78.80
43607;DHT22;29197;44.788;10.366;2023-04-06T11:10:11;16.80;77.50
43607;DHT22;29197;44.788;10.366;2023-04-06T11:13:06;16.90;77.50
43607;DHT22;29197;44.788;10.366;2023-04-06T11:15:55;17.10;85.60
43607;DHT22;29197;44.788;10.366;2023-04-06T11:18:55;17.40;78.30
43607;DHT22;29197;44.788;10.366;2023-04-06T11:21:45;17.50;76.60
43607;DHT22;29197;44.788;10.366;2023-04-06T11:24:35;17.60;77.10
43607;DHT22;29197;44.788;10.366;2023-04-06T11:27:23;17.40;74.90
43607;DHT22;29197;44.788;10.366;2023-04-06T11:30:13;18.00;74.70
43607;DHT22;29197;44.788;10.366;2023-04-06T11:33:01;18.20;75.60
43607;DHT22;29197;44.788;10.366;2023-04-06T11:35:51;18.50;75.40
43607;DHT22;29197;44.788;10.366;2023-04-06T11:38:40;18.70;74.90
43607;DHT22;29197;44.788;10.366;2023-04-06T11:41:29;18.80;74.50
43607;DHT22;29197;44.788;10.366;2023-04-06T12:21:19;20.10;69.30
43607;DHT22;29197;44.788;10.366;2023-04-06T12:24:07;19.60;69.90
43607;DHT22;29197;44.788;10.366;2023-04-06T12:26:57;19.50;71.20
43607;DHT22;29197;44.788;10.366;2023-04-06T12:32:45;20.40;70.50
43607;DHT22;29197;44.788;10.366;2023-04-06T12:35:37;20.50;70.30
43607;DHT22;29197;44.788;10.366;2023-04-06T12:38:26;20.70;71.40
43607;DHT22;29197;44.788;10.366;2023-04-06T12:41:15;20.80;68.90
43607;DHT22;29197;44.788;10.366;2023-04-06T12:55:22;21.00;93.20
43607;DHT22;29197;44.788;10.366;2023-04-06T13:06:43;21.40;94.00
43607;DHT22;29197;44.788;10.366;2023-04-06T13:09:32;21.60;69.50
43607;DHT22;29197;44.788;10.366;2023-04-06T13:12:21;21.50;68.70
43607;DHT22;29197;44.788;10.366;2023-04-06T13:15:10;21.60;69.00
43607;DHT22;29197;44.788;10.366;2023-04-06T13:18:00;21.60;69.10
43607;DHT22;29197;44.788;10.366;2023-04-06T13:40:35;21.90;65.50
43607;DHT22;29197;44.788;10.366;2023-04-06T13:43:26;22.10;65.10
43607;DHT22;29197;44.788;10.366;2023-04-06T13:46:15;22.00;64.70
43607;DHT22;29197;44.788;10.366;2023-04-06T14:14:41;21.90;99.90
43607;DHT22;29197;44.788;10.366;2023-04-06T14:17:29;21.60;95.80
43607;DHT22;29197;44.788;10.366;2023-04-06T14:20:18;21.60;98.00
43607;DHT22;29197;44.788;10.366;2023-04-06T14:23:07;21.50;95.40
43607;DHT22;29197;44.788;10.366;2023-04-06T14:26:03;21.60;94.90
43607;DHT22;29197;44.788;10.366;2023-04-06T14:28:52;21.60;94.30
43607;DHT22;29197;44.788;10.366;2023-04-06T14:31:41;21.70;94.30
43607;DHT22;29197;44.788;10.366;2023-04-06T14:34:29;21.80;94.70
43607;DHT22;29197;44.788;10.366;2023-04-06T14:37:18;21.80;94.70
43607;DHT22;29197;44.788;10.366;2023-04-06T14:40:08;21.70;94.20
43607;DHT22;29197;44.788;10.366;2023-04-06T14:42:58;21.70;94.50
43607;DHT22;29197;44.788;10.366;2023-04-06T14:45:47;21.70;93.40
43607;DHT22;29197;44.788;10.366;2023-04-06T14:48:36;21.70;92.80
43607;DHT22;29197;44.788;10.366;2023-04-06T14:51:24;21.50;91.90
43607;DHT22;29197;44.788;10.366;2023-04-06T14:57:03;21.20;66.90
43607;DHT22;29197;44.788;10.366;2023-04-06T14:59:54;21.10;68.80
43607;DHT22;29197;44.788;10.366;2023-04-06T15:02:42;20.90;69.70
43607;DHT22;29197;44.788;10.366;2023-04-06T15:05:33;20.70;69.50
43607;DHT22;29197;44.788;10.366;2023-04-06T15:08:22;20.70;69.00
43607;DHT22;29197;44.788;10.366;2023-04-06T15:11:12;20.50;68.90
43607;DHT22;29197;44.788;10.366;2023-04-06T15:14:00;20.40;69.20
43607;DHT22;29197;44.788;10.366;2023-04-06T15:16:50;20.40;70.10
43607;DHT22;29197;44.788;10.366;2023-04-06T15:19:39;20.50;69.90
43607;DHT22;29197;44.788;10.366;2023-04-06T15:22:28;20.40;69.20
43607;DHT22;29197;44.788;10.366;2023-04-06T15:25:16;20.30;70.40
43607;DHT22;29197;44.788;10.366;2023-04-06T15:28:05;20.10;70.40
43607;DHT22;29197;44.788;10.366;2023-04-06T15:30:54;19.80;71.60
43607;DHT22;29197;44.788;10.366;2023-04-06T15:33:44;19.60;69.50
43607;DHT22;29197;44.788;10.366;2023-04-06T15:36:33;19.40;71.70
43607;DHT22;29197;44.788;10.366;2023-04-06T15:39:22;19.20;71.40
43607;DHT22;29197;44.788;10.366;2023-04-06T15:42:11;19.00;75.80
43607;DHT22;29197;44.788;10.366;2023-04-06T15:45:00;18.80;76.40
43607;DHT22;29197;44.788;10.366;2023-04-06T15:47:48;18.70;75.40
43607;DHT22;29197;44.788;10.366;2023-04-06T15:50:38;18.70;77.30
43607;DHT22;29197;44.788;10.366;2023-04-06T15:53:27;18.60;78.30
43607;DHT22;29197;44.788;10.366;2023-04-06T15:56:15;18.60;77.90
43607;DHT22;29197;44.788;10.366;2023-04-06T15:59:04;18.60;74.30
43607;DHT22;29197;44.788;10.366;2023-04-06T16:01:52;18.50;75.50
43607;DHT22;29197;44.788;10.366;2023-04-06T16:04:41;18.50;77.10
43607;DHT22;29197;44.788;10.366;2023-04-06T16:07:31;18.50;78.10
43607;DHT22;29197;44.788;10.366;2023-04-06T16:10:20;18.50;77.30
43607;DHT22;29197;44.788;10.366;2023-04-06T16:13:08;18.50;76.90
43607;DHT22;29197;44.788;10.366;2023-04-06T16:15:57;18.40;80.20
43607;DHT22;29197;44.788;10.366;2023-04-06T16:18:45;18.40;79.50
43607;DHT22;29197;44.788;10.366;2023-04-06T16:21:34;18.40;82.90
43607;DHT22;29197;44.788;10.366;2023-04-06T16:24:24;18.40;79.90
43607;DHT22;29197;44.788;10.366;2023-04-06T16:27:12;18.30;79.90
43607;DHT22;29197;44.788;10.366;2023-04-06T16:30:01;18.20;78.60
43607;DHT22;29197;44.788;10.366;2023-04-06T16:32:54;18.20;78.90
43607;DHT22;29197;44.788;10.366;2023-04-06T16:35:43;18.10;79.70
43607;DHT22;29197;44.788;10.366;2023-04-06T16:38:32;18.00;78.50
43607;DHT22;29197;44.788;10.366;2023-04-06T16:41:23;18.00;80.70
43607;DHT22;29197;44.788;10.366;2023-04-06T16:44:12;17.90;80.90
43607;DHT22;29197;44.788;10.366;2023-04-06T16:47:01;17.80;80.20
43607;DHT22;29197;44.788;10.366;2023-04-06T16:49:51;17.80;78.10
43607;DHT22;29197;44.788;10.366;2023-04-06T16:52:39;17.70;79.00
43607;DHT22;29197;44.788;10.366;2023-04-06T16:55:28;17.70;80.00
43607;DHT22;29197;44.788;10.366;2023-04-06T16:58:18;17.60;81.60
43607;DHT22;29197;44.788;10.366;2023-04-06T17:01:06;17.60;83.70
43607;DHT22;29197;44.788;10.366;2023-04-06T17:03:55;17.60;84.50
43607;DHT22;29197;44.788;10.366;2023-04-06T17:06:44;17.60;85.50
43607;DHT22;29197;44.788;10.366;2023-04-06T17:09:33;17.60;86.50
43607;DHT22;29197;44.788;10.366;2023-04-06T17:12:21;17.50;86.30
43607;DHT22;29197;44.788;10.366;2023-04-06T17:15:11;17.50;85.10
43607;DHT22;29197;44.788;10.366;2023-04-06T17:18:00;17.50;83.50
43607;DHT22;29197;44.788;10.366;2023-04-06T17:23:37;17.30;80.30
43607;DHT22;29197;44.788;10.366;2023-04-06T17:26:26;17.30;80.70
43607;DHT22;29197;44.788;10.366;2023-04-06T17:29:14;17.20;83.20
43607;DHT22;29197;44.788;10.366;2023-04-06T17:32:04;17.20;85.30
43607;DHT22;29197;44.788;10.366;2023-04-06T17:34:53;17.20;84.40
43607;DHT22;29197;44.788;10.366;2023-04-06T17:37:42;17.20;82.30
43607;DHT22;29197;44.788;10.366;2023-04-06T17:40:31;17.10;80.90
43607;DHT22;29197;44.788;10.366;2023-04-06T17:43:21;17.10;79.80
43607;DHT22;29197;44.788;10.366;2023-04-06T17:46:10;16.90;80.40
43607;DHT22;29197;44.788;10.366;2023-04-06T17:49:00;16.70;80.50
43607;DHT22;29197;44.788;10.366;2023-04-06T17:51:49;16.40;82.20
43607;DHT22;29197;44.788;10.366;2023-04-06T17:54:37;16.20;81.80
43607;DHT22;29197;44.788;10.366;2023-04-06T17:57:25;16.10;82.20
43607;DHT22;29197;44.788;10.366;2023-04-06T18:00:15;16.10;82.40
43607;DHT22;29197;44.788;10.366;2023-04-06T18:03:06;16.00;82.70
43607;DHT22;29197;44.788;10.366;2023-04-06T18:05:56;16.00;82.50
43607;DHT22;29197;44.788;10.366;2023-04-06T18:08:44;16.00;83.00
43607;DHT22;29197;44.788;10.366;2023-04-06T18:11:33;16.00;83.50
43607;DHT22;29197;44.788;10.366;2023-04-06T18:14:21;16.00;84.20
43607;DHT22;29197;44.788;10.366;2023-04-06T18:17:09;15.90;85.10
43607;DHT22;29197;44.788;10.366;2023-04-06T18:19:58;15.90;86.20
43607;DHT22;29197;44.788;10.366;2023-04-06T18:22:48;15.80;86.70
43607;DHT22;29197;44.788;10.366;2023-04-06T18:25:42;15.80;86.90
43607;DHT22;29197;44.788;10.366;2023-04-06T18:28:31;15.70;86.70
43607;DHT22;29197;44.788;10.366;2023-04-06T18:31:19;15.70;86.90
43607;DHT22;29197;44.788;10.366;2023-04-06T18:34:08;15.60;87.50
43607;DHT22;29197;44.788;10.366;2023-04-06T18:36:57;15.60;87.90
43607;DHT22;29197;44.788;10.366;2023-04-06T18:39:47;15.50;86.20
43607;DHT22;29197;44.788;10.366;2023-04-06T18:42:35;15.60;85.80
43607;DHT22;29197;44.788;10.366;2023-04-06T18:45:25;15.50;86.90
43607;DHT22;29197;44.788;10.366;2023-04-06T18:48:13;15.50;86.50
43607;DHT22;29197;44.788;10.366;2023-04-06T18:51:01;15.40;87.00
43607;DHT22;29197;44.788;10.366;2023-04-06T18:53:50;15.40;87.40
43607;DHT22;29197;44.788;10.366;2023-04-06T18:56:40;15.40;87.90
43607;DHT22;29197;44.788;10.366;2023-04-06T18:59:29;15.30;88.00
43607;DHT22;29197;44.788;10.366;2023-04-06T19:02:17;15.30;88.20
43607;DHT22;29197;44.788;10.366;2023-04-06T19:05:07;15.20;88.30
43607;DHT22;29197;44.788;10.366;2023-04-06T19:07:56;15.10;88.60
43607;DHT22;29197;44.788;10.366;2023-04-06T19:10:44;15.00;88.90
43607;DHT22;29197;44.788;10.366;2023-04-06T19:13:36;14.80;88.80
43607;DHT22;29197;44.788;10.366;2023-04-06T19:16:25;14.70;88.30
43607;DHT22;29197;44.788;10.366;2023-04-06T19:19:15;14.60;88.50
43607;DHT22;29197;44.788;10.366;2023-04-06T19:22:04;14.20;91.80
43607;DHT22;29197;44.788;10.366;2023-04-06T19:24:52;14.00;89.70
43607;DHT22;29197;44.788;10.366;2023-04-06T19:27:41;13.90;90.10
43607;DHT22;29197;44.788;10.366;2023-04-06T19:30:31;14.00;90.20
43607;DHT22;29197;44.788;10.366;2023-04-06T19:33:19;14.10;90.40